Time;durP1;ratioP1;P1;durP2;ratioP2;P2;SDS_P1;SDS_P2;PMS_P1;PMS_P2;Temp;Humidity;BMP_temperature;BMP_pressure;BME280_temperature;BME280_humidity;BME280_pressure;Samples;Min_cycle;Max_cycle;Signal;HPM_P1;HPM_P2
2022/05/21 00:00:20;;;;;;;7.30;5.20;;;14.10;99.90;;;;;;5075078;28;20481;-38
2022/05/21 00:02:46;;;;;;;6.33;5.47;;;14.20;99.90;;;;;;5086687;28;20179;-38
2022/05/21 00:05:13;;;;;;;6.90;6.07;;;14.10;99.90;;;;;;5094623;28;20504;-38
2022/05/21 00:07:39;;;;;;;7.37;6.77;;;14.10;99.90;;;;;;5094788;28;21004;-38
2022/05/21 00:10:07;;;;;;;9.13;7.87;;;14.10;99.90;;;;;;5095514;28;20513;-38
2022/05/21 00:12:34;;;;;;;8.63;7.70;;;14.20;99.90;;;;;;5074498;28;20173;-38
2022/05/21 00:15:00;;;;;;;11.00;8.73;;;14.20;99.90;;;;;;5074826;28;20984;-38
2022/05/21 00:17:25;;;;;;;10.13;8.17;;;14.00;99.90;;;;;;5074394;28;20434;-38
2022/05/21 00:19:51;;;;;;;9.47;8.47;;;13.90;99.90;;;;;;5074810;28;20450;-38
2022/05/21 00:22:17;;;;;;;11.53;7.93;;;13.80;99.90;;;;;;5075005;28;20185;-38
2022/05/21 00:24:43;;;;;;;10.17;8.70;;;13.90;99.90;;;;;;5074904;28;20238;-38
2022/05/21 00:27:08;;;;;;;10.10;8.20;;;13.80;99.90;;;;;;5069461;28;20435;-38
2022/05/21 00:29:35;;;;;;;8.67;7.40;;;13.80;99.90;;;;;;5073818;28;20183;-38
2022/05/21 00:32:02;;;;;;;10.00;9.00;;;13.80;99.90;;;;;;5075047;28;20442;-38
2022/05/21 00:34:28;;;;;;;12.83;8.67;;;13.80;99.90;;;;;;5074843;28;20506;-40
2022/05/21 00:36:54;;;;;;;10.60;9.50;;;13.80;99.90;;;;;;5074452;28;20541;-37
2022/05/21 00:39:20;;;;;;;9.37;8.37;;;13.80;99.90;;;;;;5072879;28;20526;-39
2022/05/21 00:41:46;;;;;;;10.83;8.90;;;13.80;99.90;;;;;;5067774;28;20624;-38
2022/05/21 00:44:12;;;;;;;12.43;10.13;;;13.70;99.90;;;;;;5063404;28;20181;-38
2022/05/21 00:46:43;;;;;;;13.57;10.03;;;13.70;99.90;;;;;;5071173;28;20188;-39
2022/05/21 00:49:23;;;;;;;11.23;9.60;;;13.60;99.90;;;;;;5069513;28;20427;-40
2022/05/21 00:52:00;;;;;;;10.77;9.63;;;13.50;99.90;;;;;;5071830;28;20522;-38
2022/05/21 00:54:38;;;;;;;10.10;9.00;;;13.60;99.90;;;;;;5070081;28;20466;-39
2022/05/21 00:57:27;;;;;;;12.93;10.50;;;13.60;99.90;;;;;;5065909;28;20522;-38
2022/05/21 00:59:57;;;;;;;12.10;9.97;;;13.70;99.90;;;;;;5065419;28;20459;-38
2022/05/21 01:02:33;;;;;;;11.17;9.90;;;13.60;99.90;;;;;;5080200;28;20471;-39
2022/05/21 01:05:02;;;;;;;13.50;10.20;;;13.50;99.90;;;;;;5090907;28;20639;-38
2022/05/21 01:07:29;;;;;;;14.67;10.57;;;13.40;99.90;;;;;;5081045;28;20454;-38
2022/05/21 01:09:56;;;;;;;11.03;9.87;;;13.30;99.90;;;;;;5091567;28;20430;-38
2022/05/21 01:12:27;;;;;;;11.10;9.30;;;13.40;99.90;;;;;;5077526;28;20589;-38
2022/05/21 01:14:56;;;;;;;11.10;9.03;;;13.40;99.90;;;;;;5069637;28;20419;-38
2022/05/21 01:17:22;;;;;;;11.23;9.20;;;13.40;99.90;;;;;;5070305;28;20522;-38
2022/05/21 01:20:19;;;;;;;10.43;9.40;;;13.40;99.90;;;;;;5070864;28;20478;-38
2022/05/21 01:22:47;;;;;;;13.03;9.97;;;13.40;99.90;;;;;;5070402;28;20447;-38
2022/05/21 01:25:19;;;;;;;11.33;9.10;;;13.50;99.90;;;;;;5071104;28;20446;-38
2022/05/21 01:27:47;;;;;;;10.10;8.50;;;13.50;99.90;;;;;;5063364;28;20454;-37
2022/05/21 01:30:18;;;;;;;9.07;8.17;;;13.50;99.90;;;;;;5067197;28;20793;-37
2022/05/21 01:32:48;;;;;;;9.60;7.90;;;13.40;99.90;;;;;;5070555;28;20431;-38
2022/05/21 01:35:16;;;;;;;9.87;8.27;;;13.40;99.90;;;;;;5070827;28;20902;-38
2022/05/21 01:37:41;;;;;;;9.17;8.27;;;13.40;99.90;;;;;;5069838;28;20439;-38
2022/05/21 01:40:09;;;;;;;9.47;8.00;;;13.40;99.90;;;;;;5070668;28;20515;-38
2022/05/21 01:42:35;;;;;;;8.60;7.37;;;13.30;99.90;;;;;;5063334;28;20185;-39
2022/05/21 01:45:01;;;;;;;9.97;7.60;;;13.30;99.90;;;;;;5065723;28;20451;-38
2022/05/21 01:47:31;;;;;;;11.00;8.23;;;13.30;99.90;;;;;;5068105;28;20423;-37
2022/05/21 01:49:57;;;;;;;9.13;8.20;;;13.30;99.90;;;;;;5070244;28;20565;-40
2022/05/21 01:52:23;;;;;;;7.73;6.93;;;13.20;99.90;;;;;;5070088;28;20435;-38
2022/05/21 01:54:49;;;;;;;8.10;6.60;;;13.10;99.90;;;;;;5070373;28;20426;-38
2022/05/21 01:57:15;;;;;;;8.40;7.20;;;13.00;99.90;;;;;;5065525;28;20479;-38
2022/05/21 01:59:41;;;;;;;8.30;6.70;;;13.10;99.90;;;;;;5063040;28;20556;-38
2022/05/21 02:02:07;;;;;;;8.43;6.73;;;13.10;99.90;;;;;;5076816;28;20423;-38
2022/05/21 02:04:33;;;;;;;7.00;5.50;;;13.30;99.90;;;;;;5090478;28;20188;-38
2022/05/21 02:06:58;;;;;;;7.00;6.30;;;13.30;99.90;;;;;;5082623;28;20425;-38
2022/05/21 02:09:24;;;;;;;8.10;6.57;;;13.30;99.90;;;;;;5090273;28;20818;-37
2022/05/21 02:11:50;;;;;;;8.90;5.50;;;13.30;99.90;;;;;;5090209;28;20192;-38
2022/05/21 02:14:16;;;;;;;8.00;6.30;;;13.30;99.90;;;;;;5062699;28;20449;-38
2022/05/21 02:16:42;;;;;;;10.43;6.47;;;13.30;99.90;;;;;;5061891;28;20650;-38
2022/05/21 02:19:08;;;;;;;8.40;5.50;;;13.30;99.90;;;;;;5069738;28;20228;-37
2022/05/21 02:21:37;;;;;;;6.10;5.20;;;13.30;99.90;;;;;;5069760;28;20223;-37
2022/05/21 02:24:03;;;;;;;6.53;5.37;;;13.20;99.90;;;;;;5069698;28;20438;-37
2022/05/21 02:26:34;;;;;;;6.90;5.70;;;13.20;99.90;;;;;;5069599;28;20495;-39
2022/05/21 02:29:00;;;;;;;7.10;5.50;;;13.20;99.90;;;;;;5060688;28;20514;-38
2022/05/21 02:31:26;;;;;;;7.50;4.70;;;13.30;99.90;;;;;;5069628;28;20458;-38
2022/05/21 02:33:52;;;;;;;5.77;5.03;;;13.30;99.90;;;;;;5069452;28;20844;-38
2022/05/21 02:39:25;;;;;;;6.90;4.90;;;13.40;99.90;;;;;;5069784;28;20193;-38
2022/05/21 02:41:47;;;;;;;5.57;4.57;;;13.40;99.90;;;;;;5069302;28;20473;-38
2022/05/21 02:44:13;;;;;;;5.93;4.73;;;13.40;99.90;;;;;;5059626;28;20454;-38
2022/05/21 02:46:38;;;;;;;7.20;4.80;;;13.40;99.90;;;;;;5068927;28;20652;-38
2022/05/21 02:49:04;;;;;;;4.70;3.73;;;13.50;99.90;;;;;;5067509;28;20189;-37
2022/05/21 02:51:30;;;;;;;7.20;5.27;;;13.50;99.90;;;;;;5069084;28;20210;-38
2022/05/21 02:53:55;;;;;;;7.73;4.60;;;13.40;99.90;;;;;;5069286;28;20431;-37
2022/05/21 02:56:21;;;;;;;5.77;4.70;;;13.50;99.90;;;;;;5069169;28;20926;-39
2022/05/21 02:58:47;;;;;;;6.97;5.20;;;13.50;99.90;;;;;;5062444;28;20194;-38
2022/05/21 03:01:12;;;;;;;7.70;4.80;;;13.60;99.90;;;;;;5065345;28;20209;-37
2022/05/21 03:03:38;;;;;;;9.07;4.93;;;13.50;99.90;;;;;;5068481;28;20224;-38
2022/05/21 03:06:04;;;;;;;7.13;5.13;;;13.40;99.90;;;;;;5068909;28;20197;-37
2022/05/21 03:11:13;;;;;;;5.50;4.83;;;13.50;99.90;;;;;;5069197;28;20662;-39
2022/05/21 03:13:39;;;;;;;6.50;5.73;;;13.40;99.90;;;;;;5058693;28;20444;-37
2022/05/21 03:16:05;;;;;;;7.97;5.20;;;13.40;99.90;;;;;;5064491;28;20660;-40
2022/05/21 03:18:31;;;;;;;7.77;5.43;;;13.40;99.90;;;;;;5068038;28;20477;-38
2022/05/21 03:20:57;;;;;;;6.83;5.30;;;13.30;99.90;;;;;;5084130;28;21164;-38
2022/05/21 03:23:22;;;;;;;9.20;8.07;;;13.30;99.90;;;;;;5068953;28;20207;-37
2022/05/21 03:25:48;;;;;;;8.67;7.20;;;13.40;99.90;;;;;;5068953;28;20246;-37
2022/05/21 03:28:16;;;;;;;9.70;7.20;;;13.50;99.90;;;;;;5060722;28;20540;-38
2022/05/21 03:30:42;;;;;;;12.77;8.67;;;13.50;99.90;;;;;;5064205;28;20181;-38
2022/05/21 03:33:08;;;;;;;10.03;7.10;;;13.40;99.90;;;;;;5068580;28;20956;-38
2022/05/21 03:35:34;;;;;;;10.20;8.63;;;13.40;99.90;;;;;;5068892;28;20438;-38
2022/05/21 03:38:00;;;;;;;12.17;9.13;;;13.20;99.90;;;;;;5068240;28;20618;-37
2022/05/21 03:40:30;;;;;;;11.33;9.33;;;12.90;99.90;;;;;;5068869;28;20471;-39
2022/05/21 03:42:55;;;;;;;11.47;8.57;;;13.00;99.90;;;;;;5063967;28;20540;-38
2022/05/21 03:45:22;;;;;;;13.93;7.90;;;13.10;99.90;;;;;;5065415;28;20542;-37
2022/05/21 03:47:47;;;;;;;15.40;8.53;;;13.10;99.90;;;;;;5066893;28;20193;-38
2022/05/21 03:50:16;;;;;;;11.87;8.47;;;13.10;99.90;;;;;;5068870;28;20438;-37
2022/05/21 03:52:42;;;;;;;14.40;10.00;;;13.10;99.90;;;;;;5068722;28;20201;-39
2022/05/21 03:55:09;;;;;;;12.53;10.30;;;13.20;99.90;;;;;;5068893;28;20441;-38
2022/05/21 03:57:35;;;;;;;11.80;10.60;;;13.20;99.90;;;;;;5066849;28;20201;-38
2022/05/21 04:00:03;;;;;;;14.80;10.43;;;13.10;99.90;;;;;;5058030;28;21196;-38
2022/05/21 04:02:29;;;;;;;13.10;10.83;;;13.20;99.90;;;;;;5068554;28;20443;-37
2022/05/21 04:04:55;;;;;;;16.00;10.63;;;13.30;99.90;;;;;;5068614;28;20415;-38
2022/05/21 04:07:21;;;;;;;11.67;10.33;;;13.30;99.90;;;;;;5067830;28;20956;-38
2022/05/21 04:09:46;;;;;;;15.70;11.10;;;13.40;99.90;;;;;;5068489;28;20211;-38
2022/05/21 04:12:12;;;;;;;10.97;9.70;;;13.30;99.90;;;;;;5068695;28;20251;-37
2022/05/21 04:14:37;;;;;;;17.33;10.90;;;13.30;99.90;;;;;;5061756;28;20185;-38
2022/05/21 04:17:04;;;;;;;14.50;9.97;;;13.30;99.90;;;;;;5070145;28;20242;-37
2022/05/21 04:19:31;;;;;;;13.13;10.43;;;13.30;99.90;;;;;;5071923;28;20185;-38
2022/05/21 04:21:57;;;;;;;13.23;9.90;;;13.20;99.90;;;;;;5072173;28;20442;-38
2022/05/21 04:24:23;;;;;;;12.60;10.53;;;13.20;99.90;;;;;;5072026;28;20427;-39
2022/05/21 04:26:49;;;;;;;12.00;10.47;;;13.20;99.90;;;;;;5071475;28;20431;-38
2022/05/21 04:29:15;;;;;;;13.50;9.17;;;13.10;99.90;;;;;;5062152;28;20534;-38
2022/05/21 04:31:42;;;;;;;15.67;10.60;;;13.00;99.90;;;;;;5071878;28;20510;-38
2022/05/21 04:34:08;;;;;;;14.60;10.50;;;13.10;99.90;;;;;;5071748;28;20454;-38
2022/05/21 04:36:34;;;;;;;14.00;10.33;;;13.00;99.90;;;;;;5071456;28;20460;-38
2022/05/21 04:39:00;;;;;;;13.37;9.43;;;13.10;99.90;;;;;;5071639;28;20221;-38
2022/05/21 04:41:26;;;;;;;9.93;8.93;;;13.10;99.90;;;;;;5071836;28;20469;-37
2022/05/21 04:43:53;;;;;;;12.90;9.43;;;13.10;99.90;;;;;;5067428;28;20423;-38
2022/05/21 04:46:20;;;;;;;13.40;8.83;;;13.10;99.90;;;;;;5069602;28;20434;-38
2022/05/21 04:48:47;;;;;;;10.27;9.17;;;13.20;99.90;;;;;;5070116;28;20427;-37
2022/05/21 04:51:13;;;;;;;11.90;9.10;;;13.20;99.90;;;;;;5071485;28;20434;-38
2022/05/21 04:53:39;;;;;;;13.40;8.67;;;13.40;99.90;;;;;;5071358;28;20420;-38
2022/05/21 04:56:06;;;;;;;11.20;8.87;;;13.50;99.90;;;;;;5071333;28;20480;-39
2022/05/21 04:58:32;;;;;;;13.20;8.53;;;13.50;99.90;;;;;;5065815;28;20236;-39
2022/05/21 05:00:59;;;;;;;10.30;8.33;;;13.40;99.90;;;;;;5082701;28;20527;-37
2022/05/21 05:03:25;;;;;;;12.07;8.90;;;13.40;99.90;;;;;;5071472;28;20423;-38
2022/05/21 05:05:51;;;;;;;12.17;8.00;;;13.50;99.90;;;;;;5071374;28;20564;-38
2022/05/21 05:08:19;;;;;;;12.97;8.70;;;13.40;99.90;;;;;;5070681;28;20458;-37
2022/05/21 05:10:46;;;;;;;11.13;9.23;;;13.50;99.90;;;;;;5071282;28;20423;-38
2022/05/21 05:13:13;;;;;;;13.43;9.97;;;13.50;99.90;;;;;;5069093;28;20423;-38
2022/05/21 05:15:40;;;;;;;13.47;9.80;;;13.30;99.90;;;;;;5063522;28;20771;-38
2022/05/21 05:18:10;;;;;;;11.23;9.97;;;13.30;99.90;;;;;;5070377;28;21176;-37
2022/05/21 05:20:37;;;;;;;11.73;9.50;;;13.20;99.90;;;;;;5070962;28;20945;-38
2022/05/21 05:23:04;;;;;;;12.87;10.20;;;13.20;99.90;;;;;;5070867;28;20957;-38
2022/05/21 05:25:31;;;;;;;14.90;9.63;;;13.10;99.90;;;;;;5069822;28;20420;-39
2022/05/21 05:27:56;;;;;;;11.80;9.40;;;13.10;99.90;;;;;;5070305;28;20446;-38
2022/05/21 05:30:23;;;;;;;13.33;9.53;;;13.10;99.90;;;;;;5079081;28;20455;-38
2022/05/21 05:32:49;;;;;;;11.93;9.10;;;13.20;99.90;;;;;;5070451;28;20314;-37
2022/05/21 05:35:15;;;;;;;10.23;8.07;;;13.30;99.90;;;;;;5070900;28;20427;-38
2022/05/21 05:37:41;;;;;;;10.70;8.43;;;13.30;99.90;;;;;;5068701;28;20944;-38
2022/05/21 05:40:11;;;;;;;9.63;7.67;;;13.30;99.90;;;;;;5070477;28;20455;-38
2022/05/21 05:42:38;;;;;;;10.10;8.07;;;13.40;99.90;;;;;;5069462;28;20434;-37
2022/05/21 05:45:06;;;;;;;12.53;8.93;;;13.50;99.90;;;;;;5057417;28;20432;-37
2022/05/21 05:47:33;;;;;;;10.87;8.50;;;13.60;99.90;;;;;;5068349;28;20785;-38
2022/05/21 05:49:59;;;;;;;8.93;6.90;;;13.60;99.90;;;;;;5070261;28;20510;-37
2022/05/21 05:52:26;;;;;;;11.80;7.00;;;13.50;99.90;;;;;;5070283;28;20921;-38
2022/05/21 05:54:52;;;;;;;7.80;6.20;;;13.50;99.90;;;;;;5070031;28;20428;-37
2022/05/21 05:57:18;;;;;;;10.53;6.27;;;13.60;99.90;;;;;;5069830;28;20442;-38
2022/05/21 05:59:50;;;;;;;13.27;7.10;;;13.60;99.90;;;;;;5065224;28;20538;-38
2022/05/21 06:05:14;;;;;;;11.30;6.70;;;13.60;99.90;;;;;;5068528;28;20423;-38
2022/05/21 06:07:45;;;;;;;11.03;7.07;;;13.50;99.90;;;;;;5069729;28;20423;-38
2022/05/21 06:10:14;;;;;;;8.87;7.27;;;13.50;99.90;;;;;;5068117;28;20447;-38
2022/05/21 06:12:40;;;;;;;11.97;7.83;;;13.40;99.90;;;;;;5068457;28;20426;-38
2022/05/21 06:15:07;;;;;;;10.93;6.97;;;13.40;99.90;;;;;;5057829;28;20443;-38
2022/05/21 06:17:32;;;;;;;10.23;7.17;;;13.50;99.90;;;;;;5068976;28;20474;-37
2022/05/21 06:19:58;;;;;;;10.43;7.73;;;13.70;99.90;;;;;;5069476;28;20497;-38
2022/05/21 06:22:24;;;;;;;12.30;7.70;;;13.80;99.90;;;;;;5069964;28;20185;-37
2022/05/21 06:24:51;;;;;;;9.40;7.30;;;13.70;99.90;;;;;;5064467;28;20446;-38
2022/05/21 06:27:16;;;;;;;10.93;7.90;;;13.80;99.90;;;;;;5067856;28;20188;-37
2022/05/21 06:29:42;;;;;;;10.17;8.23;;;13.80;99.90;;;;;;5062096;28;20450;-38
2022/05/21 06:32:08;;;;;;;9.60;7.23;;;13.80;99.90;;;;;;5065447;28;20189;-37
2022/05/21 06:34:37;;;;;;;9.70;8.57;;;13.70;99.90;;;;;;5069293;28;20184;-38
2022/05/21 06:37:08;;;;;;;10.77;8.53;;;13.80;99.90;;;;;;5068862;28;20423;-38
2022/05/21 06:39:34;;;;;;;12.93;7.77;;;13.80;99.90;;;;;;5056752;28;20419;-38
2022/05/21 06:42:00;;;;;;;14.83;8.80;;;13.80;99.90;;;;;;5069540;28;20462;-38
2022/05/21 06:44:26;;;;;;;10.57;8.37;;;13.80;99.90;;;;;;5063710;28;21169;-37
2022/05/21 06:46:53;;;;;;;10.83;8.10;;;13.80;99.90;;;;;;5063976;28;20832;-37
2022/05/21 06:49:19;;;;;;;14.17;9.23;;;13.80;99.90;;;;;;5068368;28;20419;-38
2022/05/21 06:51:44;;;;;;;12.33;8.10;;;13.90;99.90;;;;;;5069252;28;20433;-37
2022/05/21 06:54:10;;;;;;;13.70;8.97;;;13.80;99.90;;;;;;5068920;28;20254;-37
2022/05/21 06:56:39;;;;;;;11.10;7.97;;;13.80;99.90;;;;;;5082732;28;20246;-38
2022/05/21 06:59:05;;;;;;;13.70;8.30;;;13.90;99.90;;;;;;5082986;28;20186;-37
2022/05/21 07:01:32;;;;;;;12.10;8.70;;;13.90;99.90;;;;;;5065419;28;20586;-39
2022/05/21 07:03:58;;;;;;;10.77;7.60;;;13.90;99.90;;;;;;5074612;28;20526;-38
2022/05/21 07:09:08;;;;;;;9.30;7.27;;;14.10;99.90;;;;;;5067215;28;20198;-38
2022/05/21 07:11:34;;;;;;;13.77;8.17;;;14.10;99.90;;;;;;5066218;28;20444;-38
2022/05/21 07:14:00;;;;;;;12.63;7.13;;;14.10;99.90;;;;;;5065793;28;20197;-38
2022/05/21 07:16:26;;;;;;;13.03;7.93;;;14.00;99.90;;;;;;5064343;28;20549;-38
2022/05/21 07:18:52;;;;;;;10.30;7.77;;;14.10;99.90;;;;;;5068421;28;20199;-38
2022/05/21 07:21:18;;;;;;;15.40;8.20;;;14.10;99.90;;;;;;5068718;28;20482;-38
2022/05/21 07:23:45;;;;;;;11.27;7.50;;;14.00;99.90;;;;;;5071066;28;20669;-38
2022/05/21 07:26:11;;;;;;;7.83;6.83;;;13.90;99.90;;;;;;5070784;28;20427;-38
2022/05/21 07:28:37;;;;;;;10.50;8.00;;;13.90;99.90;;;;;;5068155;28;20432;-38
2022/05/21 07:31:03;;;;;;;8.40;7.50;;;14.00;99.90;;;;;;5058363;28;20815;-38
2022/05/21 07:33:29;;;;;;;13.47;6.93;;;14.00;99.90;;;;;;5068535;28;20485;-38
2022/05/21 07:35:55;;;;;;;10.63;7.57;;;14.00;99.90;;;;;;5065048;28;20566;-38
2022/05/21 07:38:20;;;;;;;9.73;7.73;;;14.00;99.90;;;;;;5067974;28;20197;-39
2022/05/21 07:40:47;;;;;;;8.97;7.97;;;14.10;99.90;;;;;;5068318;28;20220;-38
2022/05/21 07:43:20;;;;;;;12.70;8.50;;;14.20;99.90;;;;;;5068786;28;20212;-38
2022/05/21 07:45:47;;;;;;;11.63;8.40;;;14.20;99.90;;;;;;5065657;28;20440;-38
2022/05/21 07:48:16;;;;;;;10.50;8.67;;;14.10;99.90;;;;;;5060805;28;20446;-38
2022/05/21 07:51:02;;;;;;;11.90;8.80;;;14.00;99.90;;;;;;5070521;28;20472;-38
2022/05/21 07:53:32;;;;;;;12.40;9.40;;;13.80;99.90;;;;;;5069794;28;20443;-39
2022/05/21 07:55:58;;;;;;;12.23;9.47;;;13.70;99.90;;;;;;5072726;28;20442;-38
2022/05/21 07:58:26;;;;;;;10.23;9.13;;;13.60;99.90;;;;;;5071868;28;20434;-38
2022/05/21 08:00:52;;;;;;;17.87;10.27;;;13.70;99.90;;;;;;5068021;28;21217;-38
2022/05/21 08:03:18;;;;;;;11.63;9.20;;;13.80;99.90;;;;;;5079079;28;20933;-38
2022/05/21 08:05:44;;;;;;;13.70;10.00;;;13.80;99.90;;;;;;5072505;28;20435;-38
2022/05/21 08:08:11;;;;;;;15.13;10.43;;;13.80;99.90;;;;;;5071577;28;20787;-38
2022/05/21 08:10:39;;;;;;;14.17;9.90;;;13.80;99.90;;;;;;5072673;28;20431;-38
2022/05/21 08:13:06;;;;;;;14.13;9.43;;;13.90;99.90;;;;;;5072010;28;20922;-38
2022/05/21 08:15:33;;;;;;;14.40;9.23;;;13.90;99.90;;;;;;5062908;28;20458;-38
2022/05/21 08:18:00;;;;;;;13.57;9.80;;;13.90;99.90;;;;;;5068041;28;20459;-38
2022/05/21 08:20:27;;;;;;;14.37;9.70;;;14.00;99.90;;;;;;5071910;28;20466;-37
2022/05/21 08:28:22;;;;;;;14.30;9.10;;;14.10;99.90;;;;;;5070463;28;20541;-37
2022/05/21 08:30:48;;;;;;;11.17;9.20;;;14.20;99.90;;;;;;5062380;28;20555;-38
2022/05/21 08:33:16;;;;;;;13.00;9.53;;;14.10;99.90;;;;;;5071118;28;20431;-38
2022/05/21 08:35:42;;;;;;;18.63;11.30;;;14.20;99.90;;;;;;5065794;28;20459;-38
2022/05/21 08:38:09;;;;;;;13.77;10.20;;;14.20;99.90;;;;;;5071275;28;20858;-38
2022/05/21 08:40:45;;;;;;;11.13;9.67;;;14.30;99.90;;;;;;5069194;28;20556;-38
2022/05/21 08:43:31;;;;;;;13.53;9.53;;;14.40;99.90;;;;;;5065694;28;21161;-38
2022/05/21 08:46:18;;;;;;;13.53;9.47;;;14.40;99.90;;;;;;5055575;28;20436;-38
2022/05/21 08:49:01;;;;;;;12.50;8.83;;;14.40;99.90;;;;;;5066046;28;20446;-38
2022/05/21 08:51:34;;;;;;;12.20;8.77;;;14.50;99.90;;;;;;5068203;28;20443;-38
2022/05/21 08:54:03;;;;;;;14.07;9.63;;;14.60;99.90;;;;;;5071291;28;20439;-38
2022/05/21 08:56:30;;;;;;;17.50;10.70;;;14.70;99.90;;;;;;5070841;28;20474;-38
2022/05/21 08:59:01;;;;;;;15.47;9.90;;;14.60;99.90;;;;;;5070595;28;20427;-38
2022/05/21 09:01:27;;;;;;;11.50;9.43;;;14.60;99.90;;;;;;5064195;28;20610;-40
2022/05/21 09:03:56;;;;;;;13.97;9.53;;;14.70;99.90;;;;;;5071705;28;20510;-38
2022/05/21 09:06:40;;;;;;;12.97;8.93;;;14.60;99.90;;;;;;5070434;28;20246;-38
2022/05/21 09:09:34;;;;;;;12.80;8.53;;;14.60;99.90;;;;;;5070722;28;20501;-38
2022/05/21 09:12:06;;;;;;;13.30;8.93;;;14.60;99.90;;;;;;5058577;28;20881;-38
2022/05/21 09:14:43;;;;;;;14.10;8.77;;;14.70;99.90;;;;;;5071198;28;20431;-38
2022/05/21 09:17:15;;;;;;;13.07;9.40;;;14.70;99.90;;;;;;5064532;28;20756;-38
2022/05/21 09:19:46;;;;;;;13.37;9.00;;;14.50;99.90;;;;;;5068375;28;20444;-37
2022/05/21 09:22:15;;;;;;;14.70;9.30;;;14.40;99.90;;;;;;5071168;28;20420;-38
2022/05/21 09:24:45;;;;;;;13.73;9.73;;;14.40;99.90;;;;;;5071073;28;20459;-38
2022/05/21 09:27:22;;;;;;;16.17;9.47;;;14.40;99.90;;;;;;5068978;28;20415;-38
2022/05/21 09:29:52;;;;;;;9.67;8.37;;;14.50;99.90;;;;;;5069919;28;20450;-38
2022/05/21 09:32:22;;;;;;;15.97;9.20;;;14.50;99.90;;;;;;5063871;28;20515;-37
2022/05/21 09:35:13;;;;;;;14.07;11.00;;;14.50;99.90;;;;;;5070763;28;20431;-38
2022/05/21 09:37:40;;;;;;;14.20;11.87;;;14.70;99.90;;;;;;5069861;28;20472;-38
2022/05/21 09:40:27;;;;;;;19.13;11.80;;;14.70;99.90;;;;;;5070629;28;20553;-38
2022/05/21 09:45:39;;;;;;;13.17;11.30;;;14.90;99.90;;;;;;5065362;28;20442;-37
2022/05/21 09:48:07;;;;;;;18.67;11.17;;;14.90;99.90;;;;;;5064165;28;20967;-38
2022/05/21 09:50:53;;;;;;;13.30;11.03;;;15.00;99.90;;;;;;5070572;28;20808;-38
2022/05/21 09:53:23;;;;;;;13.40;10.80;;;15.30;99.90;;;;;;5070337;28;20438;-38
2022/05/21 09:56:18;;;;;;;17.73;11.00;;;15.60;99.90;;;;;;5070453;28;20441;-38
2022/05/21 09:58:46;;;;;;;16.57;10.77;;;15.90;99.90;;;;;;5060813;28;20431;-38
2022/05/21 10:01:16;;;;;;;18.37;9.93;;;16.00;99.90;;;;;;5060015;28;20464;-41
2022/05/21 10:03:54;;;;;;;17.57;10.90;;;15.90;99.90;;;;;;5076515;28;20427;-39
2022/05/21 10:06:25;;;;;;;12.10;9.43;;;15.90;99.90;;;;;;5070217;28;20957;-38
2022/05/21 10:12:04;;;;;;;12.07;10.30;;;16.50;99.90;;;;;;5069709;28;20419;-38
2022/05/21 10:14:43;;;;;;;13.40;8.90;;;16.70;99.90;;;;;;5069854;28;20437;-38
2022/05/21 10:17:27;;;;;;;13.90;8.20;;;16.90;99.90;;;;;;5061390;28;20526;-38
2022/05/21 10:19:54;;;;;;;9.60;8.50;;;17.20;99.90;;;;;;5069686;28;20836;-38
2022/05/21 10:22:42;;;;;;;11.80;9.03;;;17.20;99.90;;;;;;5069847;28;20514;-39
2022/05/21 10:25:19;;;;;;;17.07;9.53;;;17.40;99.90;;;;;;5078990;28;20526;-39
2022/05/21 10:28:06;;;;;;;9.90;8.40;;;17.40;99.90;;;;;;5066041;28;20427;-38
2022/05/21 10:31:04;;;;;;;11.87;9.63;;;17.40;99.90;;;;;;5066347;28;20825;-38
2022/05/21 10:33:41;;;;;;;9.87;6.90;;;17.50;99.90;;;;;;5068432;28;20419;-40
2022/05/21 10:36:16;;;;;;;13.73;7.20;;;17.80;99.90;;;;;;5069436;28;20419;-38
2022/05/21 10:38:51;;;;;;;13.23;9.00;;;18.00;99.90;;;;;;5069359;28;20777;-38
2022/05/21 10:41:29;;;;;;;14.10;8.87;;;17.90;99.90;;;;;;5069644;28;20520;-38
2022/05/21 10:44:11;;;;;;;10.03;8.20;;;18.00;99.90;;;;;;5069269;28;20470;-38
2022/05/21 10:46:58;;;;;;;8.67;7.77;;;18.00;99.90;;;;;;5057282;28;20937;-38
2022/05/21 10:49:35;;;;;;;12.03;7.60;;;18.00;99.90;;;;;;5066420;28;20443;-38
2022/05/21 10:52:02;;;;;;;11.43;7.40;;;17.90;99.90;;;;;;5065776;28;20510;-38
2022/05/21 10:54:49;;;;;;;8.33;7.07;;;17.90;99.90;;;;;;5069197;28;20439;-40
2022/05/21 10:57:48;;;;;;;10.23;6.23;;;17.90;99.90;;;;;;5068667;28;20447;-39
2022/05/21 11:00:35;;;;;;;8.50;6.60;;;18.00;99.90;;;;;;5069110;28;20499;-39
2022/05/21 11:03:17;;;;;;;10.87;7.93;;;18.10;99.90;;;;;;5062530;28;20441;-38
2022/05/21 11:06:02;;;;;;;11.00;8.07;;;18.10;99.90;;;;;;5061823;28;20801;-39
2022/05/21 11:09:06;;;;;;;11.03;7.60;;;17.90;99.90;;;;;;5061245;28;20506;-40
2022/05/21 11:11:58;;;;;;;8.30;7.40;;;17.70;99.90;;;;;;5041369;28;20527;-40
2022/05/21 11:14:49;;;;;;;10.80;6.73;;;17.70;99.90;;;;;;5068745;28;20431;-40
2022/05/21 11:17:40;;;;;;;7.07;6.37;;;17.90;99.90;;;;;;5053132;28;20439;-38
2022/05/21 11:20:25;;;;;;;10.20;6.10;;;17.90;99.90;;;;;;5064350;28;20554;-44
2022/05/21 11:23:04;;;;;;;8.93;5.90;;;17.70;99.90;;;;;;5065870;28;20489;-39
2022/05/21 11:25:39;;;;;;;8.03;6.13;;;17.60;99.90;;;;;;5067885;28;20415;-39
2022/05/21 11:28:20;;;;;;;11.50;6.60;;;17.50;99.90;;;;;;5048915;28;20439;-39
2022/05/21 11:30:46;;;;;;;9.10;6.50;;;17.50;99.90;;;;;;5062583;28;20917;-42
2022/05/21 11:39:07;;;;;;;11.50;7.20;;;17.60;99.90;;;;;;5056110;28;20866;-38
2022/05/21 11:42:09;;;;;;;8.57;7.20;;;17.60;99.90;;;;;;5068191;28;20550;-38
2022/05/21 11:44:58;;;;;;;11.07;7.80;;;17.50;99.90;;;;;;5067687;28;20813;-40
2022/05/21 11:47:26;;;;;;;12.60;7.50;;;17.30;99.90;;;;;;5060182;28;21709;-38
2022/05/21 11:50:13;;;;;;;12.80;8.43;;;17.30;99.90;;;;;;5068636;28;20419;-39
2022/05/21 11:52:54;;;;;;;11.90;7.40;;;17.30;99.90;;;;;;5065670;28;20438;-38
2022/05/21 11:55:24;;;;;;;9.90;7.17;;;17.40;99.90;;;;;;5067161;28;20468;-38
2022/05/21 11:58:02;;;;;;;11.90;7.50;;;17.40;99.90;;;;;;5067282;28;20438;-38
2022/05/21 12:00:28;;;;;;;12.00;7.47;;;17.50;99.90;;;;;;5068027;28;21078;-38
2022/05/21 12:02:54;;;;;;;6.87;5.93;;;17.60;99.90;;;;;;5058520;28;20423;-42
2022/05/21 12:05:34;;;;;;;10.40;6.70;;;17.70;99.90;;;;;;5068338;28;20501;-39
2022/05/21 12:08:33;;;;;;;7.60;6.30;;;17.60;99.90;;;;;;5067858;28;20181;-41
2022/05/21 12:11:15;;;;;;;6.60;5.40;;;17.70;99.90;;;;;;5063625;28;20517;-42
2022/05/21 12:14:15;;;;;;;7.90;5.50;;;17.60;99.90;;;;;;5068447;28;21063;-42
2022/05/21 12:16:44;;;;;;;8.63;5.50;;;17.60;99.90;;;;;;5062291;28;20428;-40
2022/05/21 12:19:49;;;;;;;8.63;5.47;;;17.60;99.90;;;;;;5063975;28;20697;-40
2022/05/21 12:22:34;;;;;;;7.97;5.50;;;17.50;99.90;;;;;;5065224;28;20457;-41
2022/05/21 12:24:59;;;;;;;11.67;6.10;;;17.40;99.90;;;;;;5068367;28;20424;-43
2022/05/21 12:27:27;;;;;;;8.03;5.77;;;17.20;99.90;;;;;;5067112;28;20438;-42
2022/05/21 12:30:02;;;;;;;10.60;6.27;;;17.30;99.90;;;;;;5068277;28;20272;-39
2022/05/21 12:32:29;;;;;;;8.00;5.30;;;17.30;99.90;;;;;;5058982;28;20439;-40
2022/05/21 12:35:18;;;;;;;10.13;7.40;;;17.40;99.90;;;;;;5069427;28;20431;-38
2022/05/21 12:37:49;;;;;;;9.50;7.23;;;17.50;99.90;;;;;;5070502;28;20428;-41
2022/05/21 12:40:58;;;;;;;8.07;6.80;;;17.50;99.90;;;;;;5071419;28;20473;-39
2022/05/21 12:43:24;;;;;;;9.13;6.23;;;17.60;99.90;;;;;;5053542;28;20466;-38
2022/05/21 12:45:52;;;;;;;7.47;6.50;;;17.70;99.90;;;;;;5070279;28;20454;-39
2022/05/21 12:48:44;;;;;;;10.07;6.83;;;17.60;99.90;;;;;;5061629;28;20552;-41
2022/05/21 12:51:33;;;;;;;9.73;5.87;;;17.60;99.90;;;;;;5068343;28;20438;-38
2022/05/21 12:54:02;;;;;;;11.13;6.20;;;17.60;99.90;;;;;;5071486;28;20465;-38
2022/05/21 12:56:37;;;;;;;10.00;6.07;;;17.70;99.90;;;;;;5068627;28;20459;-38
2022/05/21 12:59:30;;;;;;;10.70;5.93;;;17.80;99.90;;;;;;5066887;28;20415;-39
2022/05/21 13:02:17;;;;;;;9.17;6.40;;;17.80;99.90;;;;;;5067171;28;20479;-38
2022/05/21 13:04:45;;;;;;;9.77;5.40;;;18.00;99.90;;;;;;5067399;28;20426;-38
2022/05/21 13:07:36;;;;;;;6.73;5.90;;;18.00;99.90;;;;;;5068404;28;20427;-40
2022/05/21 13:10:19;;;;;;;9.50;5.73;;;18.00;99.90;;;;;;5069069;28;20775;-41
2022/05/21 13:12:47;;;;;;;7.50;5.77;;;18.00;99.90;;;;;;5066609;28;20506;-39
2022/05/21 13:15:30;;;;;;;8.20;5.20;;;18.00;99.90;;;;;;5067249;28;20428;-39
2022/05/21 13:18:21;;;;;;;9.07;6.97;;;18.00;99.90;;;;;;5061379;28;20438;-42
2022/05/21 13:21:05;;;;;;;10.60;6.07;;;17.90;99.90;;;;;;5065794;28;20485;-38
2022/05/21 13:24:03;;;;;;;9.10;6.50;;;17.80;99.90;;;;;;5070289;28;20419;-40
2022/05/21 13:26:34;;;;;;;11.10;5.60;;;17.80;99.90;;;;;;5070963;28;20455;-38